sensor_id;sensor_type;location;lat;lon;timestamp;P1;durP1;ratioP1;P2;durP2;ratioP2
19605;SDS011;9950;50.168;8.210;2023-03-31T00:00:29;6.82;;;1.75;;
19605;SDS011;9950;50.168;8.210;2023-03-31T00:02:56;7.35;;;2.25;;
19605;SDS011;9950;50.168;8.210;2023-03-31T00:05:26;8.00;;;1.70;;
19605;SDS011;9950;50.168;8.210;2023-03-31T00:07:53;8.13;;;1.75;;
19605;SDS011;9950;50.168;8.210;2023-03-31T00:10:25;7.93;;;1.77;;
19605;SDS011;9950;50.168;8.210;2023-03-31T00:12:52;5.72;;;1.80;;
19605;SDS011;9950;50.168;8.210;2023-03-31T00:15:19;8.10;;;2.00;;
19605;SDS011;9950;50.168;8.210;2023-03-31T00:17:46;9.57;;;2.03;;
19605;SDS011;9950;50.168;8.210;2023-03-31T00:20:14;10.43;;;1.90;;
19605;SDS011;9950;50.168;8.210;2023-03-31T00:22:42;8.65;;;2.28;;
19605;SDS011;9950;50.168;8.210;2023-03-31T00:25:10;9.05;;;2.25;;
19605;SDS011;9950;50.168;8.210;2023-03-31T00:27:39;10.77;;;2.20;;
19605;SDS011;9950;50.168;8.210;2023-03-31T00:30:08;8.73;;;2.72;;
19605;SDS011;9950;50.168;8.210;2023-03-31T00:32:36;6.95;;;2.42;;
19605;SDS011;9950;50.168;8.210;2023-03-31T00:35:04;7.55;;;1.58;;
19605;SDS011;9950;50.168;8.210;2023-03-31T00:37:31;7.13;;;1.70;;
19605;SDS011;9950;50.168;8.210;2023-03-31T00:40:00;10.45;;;2.20;;
19605;SDS011;9950;50.168;8.210;2023-03-31T00:42:30;5.95;;;1.92;;
19605;SDS011;9950;50.168;8.210;2023-03-31T00:45:20;8.60;;;1.83;;
19605;SDS011;9950;50.168;8.210;2023-03-31T00:47:49;6.57;;;2.30;;
19605;SDS011;9950;50.168;8.210;2023-03-31T00:50:18;8.70;;;2.50;;
19605;SDS011;9950;50.168;8.210;2023-03-31T00:52:46;11.88;;;2.70;;
19605;SDS011;9950;50.168;8.210;2023-03-31T00:55:16;14.35;;;3.10;;
19605;SDS011;9950;50.168;8.210;2023-03-31T00:57:45;14.52;;;2.67;;
19605;SDS011;9950;50.168;8.210;2023-03-31T01:00:14;7.10;;;2.70;;
19605;SDS011;9950;50.168;8.210;2023-03-31T01:02:42;10.00;;;3.00;;
19605;SDS011;9950;50.168;8.210;2023-03-31T01:05:15;8.23;;;2.55;;
19605;SDS011;9950;50.168;8.210;2023-03-31T01:07:44;9.23;;;2.90;;
19605;SDS011;9950;50.168;8.210;2023-03-31T01:10:12;10.23;;;3.05;;
19605;SDS011;9950;50.168;8.210;2023-03-31T01:12:41;10.45;;;2.88;;
19605;SDS011;9950;50.168;8.210;2023-03-31T01:15:09;9.45;;;3.10;;
19605;SDS011;9950;50.168;8.210;2023-03-31T01:17:37;11.32;;;3.13;;
19605;SDS011;9950;50.168;8.210;2023-03-31T01:20:06;12.70;;;3.17;;
19605;SDS011;9950;50.168;8.210;2023-03-31T01:25:31;11.48;;;2.92;;
19605;SDS011;9950;50.168;8.210;2023-03-31T01:28:07;10.63;;;3.47;;
19605;SDS011;9950;50.168;8.210;2023-03-31T01:30:46;10.45;;;3.22;;
19605;SDS011;9950;50.168;8.210;2023-03-31T01:33:33;13.07;;;3.00;;
19605;SDS011;9950;50.168;8.210;2023-03-31T01:36:13;9.90;;;2.50;;
19605;SDS011;9950;50.168;8.210;2023-03-31T01:41:32;9.40;;;2.47;;
19605;SDS011;9950;50.168;8.210;2023-03-31T01:44:04;14.07;;;2.85;;
19605;SDS011;9950;50.168;8.210;2023-03-31T01:46:34;8.18;;;2.20;;
19605;SDS011;9950;50.168;8.210;2023-03-31T01:49:05;9.25;;;2.55;;
19605;SDS011;9950;50.168;8.210;2023-03-31T01:51:34;13.18;;;2.70;;
19605;SDS011;9950;50.168;8.210;2023-03-31T01:54:07;9.25;;;2.53;;
19605;SDS011;9950;50.168;8.210;2023-03-31T01:56:40;9.40;;;3.47;;
19605;SDS011;9950;50.168;8.210;2023-03-31T01:59:09;8.68;;;2.10;;
19605;SDS011;9950;50.168;8.210;2023-03-31T02:01:38;11.80;;;2.15;;
19605;SDS011;9950;50.168;8.210;2023-03-31T02:04:07;10.30;;;2.95;;
19605;SDS011;9950;50.168;8.210;2023-03-31T02:06:37;11.20;;;2.80;;
19605;SDS011;9950;50.168;8.210;2023-03-31T02:09:07;10.98;;;2.50;;
19605;SDS011;9950;50.168;8.210;2023-03-31T02:11:35;12.27;;;2.88;;
19605;SDS011;9950;50.168;8.210;2023-03-31T02:14:07;11.85;;;2.42;;
19605;SDS011;9950;50.168;8.210;2023-03-31T02:16:36;13.52;;;3.05;;
19605;SDS011;9950;50.168;8.210;2023-03-31T02:19:06;10.98;;;2.30;;
19605;SDS011;9950;50.168;8.210;2023-03-31T02:21:35;12.48;;;2.45;;
19605;SDS011;9950;50.168;8.210;2023-03-31T02:24:03;14.63;;;2.40;;
19605;SDS011;9950;50.168;8.210;2023-03-31T02:26:33;8.27;;;2.35;;
19605;SDS011;9950;50.168;8.210;2023-03-31T02:29:01;10.32;;;2.92;;
19605;SDS011;9950;50.168;8.210;2023-03-31T02:31:31;11.38;;;2.28;;
19605;SDS011;9950;50.168;8.210;2023-03-31T02:34:04;10.43;;;2.45;;
19605;SDS011;9950;50.168;8.210;2023-03-31T02:36:32;12.98;;;2.30;;
19605;SDS011;9950;50.168;8.210;2023-03-31T02:39:02;8.15;;;2.03;;
19605;SDS011;9950;50.168;8.210;2023-03-31T02:41:30;9.02;;;2.60;;
19605;SDS011;9950;50.168;8.210;2023-03-31T02:43:58;8.05;;;1.83;;
19605;SDS011;9950;50.168;8.210;2023-03-31T02:46:26;8.93;;;2.80;;
19605;SDS011;9950;50.168;8.210;2023-03-31T02:48:56;7.05;;;2.50;;
19605;SDS011;9950;50.168;8.210;2023-03-31T02:54:22;10.32;;;2.42;;
19605;SDS011;9950;50.168;8.210;2023-03-31T02:57:00;10.85;;;2.67;;
19605;SDS011;9950;50.168;8.210;2023-03-31T02:59:32;7.18;;;2.10;;
19605;SDS011;9950;50.168;8.210;2023-03-31T03:02:07;9.65;;;2.30;;
19605;SDS011;9950;50.168;8.210;2023-03-31T03:04:48;7.80;;;2.10;;
19605;SDS011;9950;50.168;8.210;2023-03-31T03:07:21;8.65;;;2.30;;
19605;SDS011;9950;50.168;8.210;2023-03-31T03:09:53;8.05;;;2.88;;
19605;SDS011;9950;50.168;8.210;2023-03-31T03:12:24;7.63;;;2.00;;
19605;SDS011;9950;50.168;8.210;2023-03-31T03:14:54;6.85;;;2.65;;
19605;SDS011;9950;50.168;8.210;2023-03-31T03:17:22;9.68;;;2.22;;
19605;SDS011;9950;50.168;8.210;2023-03-31T03:19:54;7.22;;;2.33;;
19605;SDS011;9950;50.168;8.210;2023-03-31T03:22:21;7.43;;;2.28;;
19605;SDS011;9950;50.168;8.210;2023-03-31T03:24:49;8.32;;;2.70;;
19605;SDS011;9950;50.168;8.210;2023-03-31T03:27:16;9.65;;;2.42;;
19605;SDS011;9950;50.168;8.210;2023-03-31T03:29:43;5.85;;;2.40;;
19605;SDS011;9950;50.168;8.210;2023-03-31T03:32:11;13.02;;;3.25;;
19605;SDS011;9950;50.168;8.210;2023-03-31T03:34:38;9.82;;;3.47;;
19605;SDS011;9950;50.168;8.210;2023-03-31T03:37:07;6.35;;;2.80;;
19605;SDS011;9950;50.168;8.210;2023-03-31T03:39:34;6.35;;;2.40;;
19605;SDS011;9950;50.168;8.210;2023-03-31T03:42:02;13.05;;;3.10;;
19605;SDS011;9950;50.168;8.210;2023-03-31T03:44:29;9.52;;;2.90;;
19605;SDS011;9950;50.168;8.210;2023-03-31T03:46:56;9.93;;;3.35;;
19605;SDS011;9950;50.168;8.210;2023-03-31T03:49:24;10.65;;;3.45;;
19605;SDS011;9950;50.168;8.210;2023-03-31T03:51:51;10.82;;;4.13;;
19605;SDS011;9950;50.168;8.210;2023-03-31T03:54:19;12.88;;;4.75;;
19605;SDS011;9950;50.168;8.210;2023-03-31T03:56:46;12.95;;;5.90;;
19605;SDS011;9950;50.168;8.210;2023-03-31T03:59:14;13.23;;;5.28;;
19605;SDS011;9950;50.168;8.210;2023-03-31T04:01:41;16.92;;;5.78;;
19605;SDS011;9950;50.168;8.210;2023-03-31T04:04:08;10.07;;;5.05;;
19605;SDS011;9950;50.168;8.210;2023-03-31T04:06:35;16.50;;;6.97;;
19605;SDS011;9950;50.168;8.210;2023-03-31T04:09:04;15.48;;;5.93;;
19605;SDS011;9950;50.168;8.210;2023-03-31T04:11:32;16.77;;;6.22;;
19605;SDS011;9950;50.168;8.210;2023-03-31T04:14:00;9.90;;;4.47;;
19605;SDS011;9950;50.168;8.210;2023-03-31T04:16:27;11.38;;;5.22;;
19605;SDS011;9950;50.168;8.210;2023-03-31T04:18:55;12.52;;;4.97;;
19605;SDS011;9950;50.168;8.210;2023-03-31T04:21:23;12.43;;;4.35;;
19605;SDS011;9950;50.168;8.210;2023-03-31T04:23:51;11.20;;;4.43;;
19605;SDS011;9950;50.168;8.210;2023-03-31T04:26:22;12.80;;;4.30;;
19605;SDS011;9950;50.168;8.210;2023-03-31T04:28:56;12.48;;;4.25;;
19605;SDS011;9950;50.168;8.210;2023-03-31T04:31:25;12.45;;;4.00;;
19605;SDS011;9950;50.168;8.210;2023-03-31T04:33:54;11.25;;;3.17;;
19605;SDS011;9950;50.168;8.210;2023-03-31T04:36:26;10.38;;;2.45;;
19605;SDS011;9950;50.168;8.210;2023-03-31T04:38:55;13.60;;;3.15;;
19605;SDS011;9950;50.168;8.210;2023-03-31T04:41:23;10.93;;;2.55;;
19605;SDS011;9950;50.168;8.210;2023-03-31T04:43:51;10.32;;;2.80;;
19605;SDS011;9950;50.168;8.210;2023-03-31T04:46:20;11.35;;;3.30;;
19605;SDS011;9950;50.168;8.210;2023-03-31T04:48:47;12.45;;;3.17;;
19605;SDS011;9950;50.168;8.210;2023-03-31T04:51:15;5.72;;;2.53;;
19605;SDS011;9950;50.168;8.210;2023-03-31T04:53:42;12.10;;;2.92;;
19605;SDS011;9950;50.168;8.210;2023-03-31T04:56:09;11.93;;;2.95;;
19605;SDS011;9950;50.168;8.210;2023-03-31T04:58:36;10.07;;;3.25;;
19605;SDS011;9950;50.168;8.210;2023-03-31T05:01:03;12.93;;;3.63;;
19605;SDS011;9950;50.168;8.210;2023-03-31T05:03:33;11.68;;;4.07;;
19605;SDS011;9950;50.168;8.210;2023-03-31T05:06:00;13.05;;;4.30;;
19605;SDS011;9950;50.168;8.210;2023-03-31T05:08:27;11.00;;;3.80;;
19605;SDS011;9950;50.168;8.210;2023-03-31T05:10:55;10.38;;;3.83;;
19605;SDS011;9950;50.168;8.210;2023-03-31T05:13:23;11.20;;;4.40;;
19605;SDS011;9950;50.168;8.210;2023-03-31T05:15:50;9.73;;;3.88;;
19605;SDS011;9950;50.168;8.210;2023-03-31T05:18:17;12.43;;;3.85;;
19605;SDS011;9950;50.168;8.210;2023-03-31T05:20:46;7.28;;;3.78;;
19605;SDS011;9950;50.168;8.210;2023-03-31T05:23:13;10.38;;;4.05;;
19605;SDS011;9950;50.168;8.210;2023-03-31T05:25:40;10.00;;;4.50;;
19605;SDS011;9950;50.168;8.210;2023-03-31T05:28:08;12.88;;;4.68;;
19605;SDS011;9950;50.168;8.210;2023-03-31T05:30:35;11.55;;;5.00;;
19605;SDS011;9950;50.168;8.210;2023-03-31T05:33:02;13.57;;;5.00;;
19605;SDS011;9950;50.168;8.210;2023-03-31T05:35:29;13.50;;;5.47;;
19605;SDS011;9950;50.168;8.210;2023-03-31T05:37:58;13.85;;;6.20;;
19605;SDS011;9950;50.168;8.210;2023-03-31T05:40:25;10.05;;;5.72;;
19605;SDS011;9950;50.168;8.210;2023-03-31T05:42:52;15.30;;;6.57;;
19605;SDS011;9950;50.168;8.210;2023-03-31T05:45:19;9.68;;;5.90;;
19605;SDS011;9950;50.168;8.210;2023-03-31T05:47:47;10.73;;;5.68;;
19605;SDS011;9950;50.168;8.210;2023-03-31T05:50:14;11.27;;;5.65;;
19605;SDS011;9950;50.168;8.210;2023-03-31T05:52:42;11.23;;;5.65;;
19605;SDS011;9950;50.168;8.210;2023-03-31T05:55:10;12.38;;;5.50;;
19605;SDS011;9950;50.168;8.210;2023-03-31T05:57:38;10.80;;;4.95;;
19605;SDS011;9950;50.168;8.210;2023-03-31T06:00:05;8.95;;;4.10;;
19605;SDS011;9950;50.168;8.210;2023-03-31T06:02:35;11.13;;;4.43;;
19605;SDS011;9950;50.168;8.210;2023-03-31T06:05:03;12.93;;;5.30;;
19605;SDS011;9950;50.168;8.210;2023-03-31T06:07:30;10.75;;;4.85;;
19605;SDS011;9950;50.168;8.210;2023-03-31T06:09:58;9.35;;;5.47;;
19605;SDS011;9950;50.168;8.210;2023-03-31T06:12:27;10.02;;;4.80;;
19605;SDS011;9950;50.168;8.210;2023-03-31T06:14:54;12.18;;;5.35;;
19605;SDS011;9950;50.168;8.210;2023-03-31T06:17:21;10.35;;;4.88;;
19605;SDS011;9950;50.168;8.210;2023-03-31T06:19:48;9.77;;;5.53;;
19605;SDS011;9950;50.168;8.210;2023-03-31T06:22:17;11.45;;;4.78;;
19605;SDS011;9950;50.168;8.210;2023-03-31T06:24:45;9.50;;;4.25;;
19605;SDS011;9950;50.168;8.210;2023-03-31T06:27:12;8.10;;;4.20;;
19605;SDS011;9950;50.168;8.210;2023-03-31T06:29:41;6.93;;;3.78;;
19605;SDS011;9950;50.168;8.210;2023-03-31T06:32:08;8.32;;;4.95;;
19605;SDS011;9950;50.168;8.210;2023-03-31T06:34:35;14.40;;;4.75;;
19605;SDS011;9950;50.168;8.210;2023-03-31T06:37:03;10.68;;;4.82;;
19605;SDS011;9950;50.168;8.210;2023-03-31T06:39:30;15.90;;;7.65;;
19605;SDS011;9950;50.168;8.210;2023-03-31T06:41:57;16.25;;;7.53;;
19605;SDS011;9950;50.168;8.210;2023-03-31T06:44:24;15.02;;;7.60;;
19605;SDS011;9950;50.168;8.210;2023-03-31T06:46:53;14.25;;;6.70;;
19605;SDS011;9950;50.168;8.210;2023-03-31T06:49:20;13.13;;;6.03;;
19605;SDS011;9950;50.168;8.210;2023-03-31T06:51:47;8.18;;;4.32;;
19605;SDS011;9950;50.168;8.210;2023-03-31T06:54:15;12.27;;;4.93;;
19605;SDS011;9950;50.168;8.210;2023-03-31T06:56:42;8.90;;;3.65;;
19605;SDS011;9950;50.168;8.210;2023-03-31T06:59:09;10.85;;;4.72;;
19605;SDS011;9950;50.168;8.210;2023-03-31T07:01:37;12.48;;;6.35;;
19605;SDS011;9950;50.168;8.210;2023-03-31T07:04:07;8.30;;;4.15;;
19605;SDS011;9950;50.168;8.210;2023-03-31T07:06:35;10.57;;;3.60;;
19605;SDS011;9950;50.168;8.210;2023-03-31T07:09:02;4.75;;;2.50;;
19605;SDS011;9950;50.168;8.210;2023-03-31T07:11:29;3.53;;;1.92;;
19605;SDS011;9950;50.168;8.210;2023-03-31T07:13:56;6.25;;;2.20;;
19605;SDS011;9950;50.168;8.210;2023-03-31T07:16:24;2.55;;;1.85;;
19605;SDS011;9950;50.168;8.210;2023-03-31T07:18:51;3.65;;;1.98;;
19605;SDS011;9950;50.168;8.210;2023-03-31T07:21:24;3.92;;;1.90;;
19605;SDS011;9950;50.168;8.210;2023-03-31T07:23:52;6.00;;;2.35;;
19605;SDS011;9950;50.168;8.210;2023-03-31T07:26:19;7.05;;;2.20;;
19605;SDS011;9950;50.168;8.210;2023-03-31T07:28:46;4.40;;;2.00;;
19605;SDS011;9950;50.168;8.210;2023-03-31T07:31:13;3.17;;;2.30;;
19605;SDS011;9950;50.168;8.210;2023-03-31T07:33:41;3.13;;;1.90;;
19605;SDS011;9950;50.168;8.210;2023-03-31T07:36:08;2.95;;;1.70;;
19605;SDS011;9950;50.168;8.210;2023-03-31T07:38:37;2.25;;;1.65;;
19605;SDS011;9950;50.168;8.210;2023-03-31T07:41:04;3.58;;;1.40;;
19605;SDS011;9950;50.168;8.210;2023-03-31T07:43:32;1.90;;;1.67;;
19605;SDS011;9950;50.168;8.210;2023-03-31T07:45:59;3.00;;;1.50;;
19605;SDS011;9950;50.168;8.210;2023-03-31T07:48:26;2.55;;;1.30;;
19605;SDS011;9950;50.168;8.210;2023-03-31T07:50:54;2.47;;;1.20;;
19605;SDS011;9950;50.168;8.210;2023-03-31T07:53:21;1.00;;;0.90;;
19605;SDS011;9950;50.168;8.210;2023-03-31T07:55:50;2.00;;;0.93;;
19605;SDS011;9950;50.168;8.210;2023-03-31T07:58:17;1.10;;;0.63;;
19605;SDS011;9950;50.168;8.210;2023-03-31T08:00:44;1.10;;;0.80;;
19605;SDS011;9950;50.168;8.210;2023-03-31T08:03:11;2.55;;;0.70;;
19605;SDS011;9950;50.168;8.210;2023-03-31T08:05:39;1.85;;;0.60;;
19605;SDS011;9950;50.168;8.210;2023-03-31T08:08:06;2.40;;;0.75;;
19605;SDS011;9950;50.168;8.210;2023-03-31T08:10:33;1.65;;;0.65;;
19605;SDS011;9950;50.168;8.210;2023-03-31T08:13:02;1.00;;;0.60;;
19605;SDS011;9950;50.168;8.210;2023-03-31T08:15:29;0.60;;;0.60;;
19605;SDS011;9950;50.168;8.210;2023-03-31T08:17:57;1.45;;;0.50;;
19605;SDS011;9950;50.168;8.210;2023-03-31T08:20:24;1.13;;;0.60;;
19605;SDS011;9950;50.168;8.210;2023-03-31T08:22:52;1.75;;;0.57;;
19605;SDS011;9950;50.168;8.210;2023-03-31T08:25:19;1.10;;;0.70;;
19605;SDS011;9950;50.168;8.210;2023-03-31T08:27:47;0.90;;;0.82;;
19605;SDS011;9950;50.168;8.210;2023-03-31T08:30:17;3.88;;;1.20;;
19605;SDS011;9950;50.168;8.210;2023-03-31T08:32:45;2.53;;;1.00;;
19605;SDS011;9950;50.168;8.210;2023-03-31T08:35:12;3.15;;;1.13;;
19605;SDS011;9950;50.168;8.210;2023-03-31T08:37:39;1.33;;;0.93;;
19605;SDS011;9950;50.168;8.210;2023-03-31T08:40:09;3.22;;;1.50;;
19605;SDS011;9950;50.168;8.210;2023-03-31T08:42:40;6.75;;;1.90;;
19605;SDS011;9950;50.168;8.210;2023-03-31T08:45:10;3.30;;;1.50;;
19605;SDS011;9950;50.168;8.210;2023-03-31T08:47:42;3.00;;;1.38;;
19605;SDS011;9950;50.168;8.210;2023-03-31T08:50:12;3.97;;;1.60;;
19605;SDS011;9950;50.168;8.210;2023-03-31T08:52:40;2.30;;;1.60;;
19605;SDS011;9950;50.168;8.210;2023-03-31T08:55:10;3.95;;;1.88;;
19605;SDS011;9950;50.168;8.210;2023-03-31T08:57:39;5.20;;;1.60;;
19605;SDS011;9950;50.168;8.210;2023-03-31T09:00:12;6.07;;;1.90;;
19605;SDS011;9950;50.168;8.210;2023-03-31T09:02:43;6.13;;;1.70;;
19605;SDS011;9950;50.168;8.210;2023-03-31T09:05:27;6.63;;;2.15;;
19605;SDS011;9950;50.168;8.210;2023-03-31T09:07:57;3.72;;;1.73;;
19605;SDS011;9950;50.168;8.210;2023-03-31T09:10:32;4.55;;;2.03;;
19605;SDS011;9950;50.168;8.210;2023-03-31T09:13:02;5.03;;;1.75;;
19605;SDS011;9950;50.168;8.210;2023-03-31T09:15:33;5.95;;;1.90;;
19605;SDS011;9950;50.168;8.210;2023-03-31T09:18:06;3.15;;;1.48;;
19605;SDS011;9950;50.168;8.210;2023-03-31T09:20:35;5.15;;;2.05;;
19605;SDS011;9950;50.168;8.210;2023-03-31T09:23:05;7.38;;;2.60;;
19605;SDS011;9950;50.168;8.210;2023-03-31T09:25:35;4.55;;;1.90;;
19605;SDS011;9950;50.168;8.210;2023-03-31T09:28:05;5.22;;;2.25;;
19605;SDS011;9950;50.168;8.210;2023-03-31T09:30:38;10.27;;;2.10;;
19605;SDS011;9950;50.168;8.210;2023-03-31T09:33:10;3.63;;;1.77;;
19605;SDS011;9950;50.168;8.210;2023-03-31T09:35:40;6.55;;;2.00;;
19605;SDS011;9950;50.168;8.210;2023-03-31T09:38:08;3.25;;;2.08;;
19605;SDS011;9950;50.168;8.210;2023-03-31T09:40:36;7.03;;;2.30;;
19605;SDS011;9950;50.168;8.210;2023-03-31T09:43:04;7.05;;;2.00;;
19605;SDS011;9950;50.168;8.210;2023-03-31T09:45:32;7.50;;;2.13;;
19605;SDS011;9950;50.168;8.210;2023-03-31T09:48:00;7.07;;;2.28;;
19605;SDS011;9950;50.168;8.210;2023-03-31T09:50:29;4.60;;;2.35;;
19605;SDS011;9950;50.168;8.210;2023-03-31T09:52:59;7.32;;;2.40;;
19605;SDS011;9950;50.168;8.210;2023-03-31T09:55:28;10.07;;;2.75;;
19605;SDS011;9950;50.168;8.210;2023-03-31T09:57:59;11.98;;;2.67;;
19605;SDS011;9950;50.168;8.210;2023-03-31T10:00:26;6.05;;;2.17;;
19605;SDS011;9950;50.168;8.210;2023-03-31T10:02:54;5.68;;;2.25;;
19605;SDS011;9950;50.168;8.210;2023-03-31T10:05:33;10.35;;;2.42;;
19605;SDS011;9950;50.168;8.210;2023-03-31T10:08:13;5.53;;;2.10;;
19605;SDS011;9950;50.168;8.210;2023-03-31T10:10:45;7.25;;;2.17;;
19605;SDS011;9950;50.168;8.210;2023-03-31T10:13:15;10.18;;;1.85;;
19605;SDS011;9950;50.168;8.210;2023-03-31T10:15:43;5.20;;;1.10;;
19605;SDS011;9950;50.168;8.210;2023-03-31T10:18:12;1.67;;;0.98;;
19605;SDS011;9950;50.168;8.210;2023-03-31T10:20:43;3.88;;;1.10;;
19605;SDS011;9950;50.168;8.210;2023-03-31T10:23:14;3.13;;;1.00;;
19605;SDS011;9950;50.168;8.210;2023-03-31T10:25:42;4.80;;;1.17;;
19605;SDS011;9950;50.168;8.210;2023-03-31T10:28:11;2.55;;;1.00;;
19605;SDS011;9950;50.168;8.210;2023-03-31T10:30:39;6.65;;;1.10;;
19605;SDS011;9950;50.168;8.210;2023-03-31T10:33:08;6.07;;;1.25;;
19605;SDS011;9950;50.168;8.210;2023-03-31T10:35:38;1.45;;;0.77;;
19605;SDS011;9950;50.168;8.210;2023-03-31T10:38:09;2.90;;;1.00;;
19605;SDS011;9950;50.168;8.210;2023-03-31T10:40:36;4.00;;;1.20;;
19605;SDS011;9950;50.168;8.210;2023-03-31T10:43:05;3.67;;;1.02;;
19605;SDS011;9950;50.168;8.210;2023-03-31T10:45:36;5.53;;;1.13;;
19605;SDS011;9950;50.168;8.210;2023-03-31T10:48:04;4.53;;;1.00;;
19605;SDS011;9950;50.168;8.210;2023-03-31T10:50:34;4.32;;;1.20;;
19605;SDS011;9950;50.168;8.210;2023-03-31T10:53:02;6.28;;;1.10;;
19605;SDS011;9950;50.168;8.210;2023-03-31T10:55:35;3.92;;;1.10;;
19605;SDS011;9950;50.168;8.210;2023-03-31T10:58:10;2.22;;;1.02;;
19605;SDS011;9950;50.168;8.210;2023-03-31T11:00:40;6.20;;;1.35;;
19605;SDS011;9950;50.168;8.210;2023-03-31T11:03:33;8.57;;;2.60;;
19605;SDS011;9950;50.168;8.210;2023-03-31T11:06:03;10.57;;;1.70;;
19605;SDS011;9950;50.168;8.210;2023-03-31T11:08:41;11.93;;;2.35;;
19605;SDS011;9950;50.168;8.210;2023-03-31T11:14:04;9.00;;;2.17;;
19605;SDS011;9950;50.168;8.210;2023-03-31T11:16:37;6.82;;;1.52;;
19605;SDS011;9950;50.168;8.210;2023-03-31T11:19:10;7.53;;;2.50;;
19605;SDS011;9950;50.168;8.210;2023-03-31T11:21:41;11.02;;;2.05;;
19605;SDS011;9950;50.168;8.210;2023-03-31T11:24:14;7.85;;;1.70;;
19605;SDS011;9950;50.168;8.210;2023-03-31T11:26:45;10.98;;;1.83;;
19605;SDS011;9950;50.168;8.210;2023-03-31T11:29:21;7.03;;;2.05;;
19605;SDS011;9950;50.168;8.210;2023-03-31T11:31:51;5.53;;;1.65;;
19605;SDS011;9950;50.168;8.210;2023-03-31T11:34:25;8.48;;;2.05;;
19605;SDS011;9950;50.168;8.210;2023-03-31T11:37:05;11.00;;;1.70;;
19605;SDS011;9950;50.168;8.210;2023-03-31T11:39:38;9.15;;;1.88;;
19605;SDS011;9950;50.168;8.210;2023-03-31T11:42:09;8.00;;;2.08;;
19605;SDS011;9950;50.168;8.210;2023-03-31T11:44:41;12.30;;;1.88;;
19605;SDS011;9950;50.168;8.210;2023-03-31T11:47:11;11.88;;;1.80;;
19605;SDS011;9950;50.168;8.210;2023-03-31T11:49:40;4.20;;;1.38;;
19605;SDS011;9950;50.168;8.210;2023-03-31T11:52:12;4.03;;;1.35;;
19605;SDS011;9950;50.168;8.210;2023-03-31T11:54:41;4.32;;;1.10;;
19605;SDS011;9950;50.168;8.210;2023-03-31T11:57:11;6.07;;;1.60;;
19605;SDS011;9950;50.168;8.210;2023-03-31T11:59:41;5.03;;;1.30;;
19605;SDS011;9950;50.168;8.210;2023-03-31T12:02:13;3.80;;;1.10;;
19605;SDS011;9950;50.168;8.210;2023-03-31T12:04:42;6.75;;;1.30;;
19605;SDS011;9950;50.168;8.210;2023-03-31T12:07:15;8.45;;;1.50;;
19605;SDS011;9950;50.168;8.210;2023-03-31T12:09:49;4.47;;;1.38;;
19605;SDS011;9950;50.168;8.210;2023-03-31T12:12:18;6.43;;;1.52;;
19605;SDS011;9950;50.168;8.210;2023-03-31T12:14:49;8.68;;;1.35;;
19605;SDS011;9950;50.168;8.210;2023-03-31T12:17:19;5.50;;;1.60;;
19605;SDS011;9950;50.168;8.210;2023-03-31T12:19:49;7.03;;;1.45;;
19605;SDS011;9950;50.168;8.210;2023-03-31T12:22:18;8.55;;;1.80;;
19605;SDS011;9950;50.168;8.210;2023-03-31T12:24:48;8.65;;;1.45;;
19605;SDS011;9950;50.168;8.210;2023-03-31T12:27:17;6.25;;;1.65;;
19605;SDS011;9950;50.168;8.210;2023-03-31T12:29:50;6.10;;;1.60;;
19605;SDS011;9950;50.168;8.210;2023-03-31T12:32:21;7.40;;;1.80;;
19605;SDS011;9950;50.168;8.210;2023-03-31T12:34:50;8.35;;;1.73;;
19605;SDS011;9950;50.168;8.210;2023-03-31T12:37:26;4.72;;;1.75;;
19605;SDS011;9950;50.168;8.210;2023-03-31T12:39:57;8.68;;;1.90;;
19605;SDS011;9950;50.168;8.210;2023-03-31T12:42:43;7.22;;;1.60;;
19605;SDS011;9950;50.168;8.210;2023-03-31T12:45:16;6.18;;;1.73;;
19605;SDS011;9950;50.168;8.210;2023-03-31T12:47:50;7.75;;;1.25;;
19605;SDS011;9950;50.168;8.210;2023-03-31T12:53:06;13.25;;;2.08;;
19605;SDS011;9950;50.168;8.210;2023-03-31T12:55:39;6.50;;;2.33;;
19605;SDS011;9950;50.168;8.210;2023-03-31T13:01:04;7.10;;;1.33;;
19605;SDS011;9950;50.168;8.210;2023-03-31T13:03:39;4.10;;;1.40;;
19605;SDS011;9950;50.168;8.210;2023-03-31T13:06:08;7.57;;;1.65;;
19605;SDS011;9950;50.168;8.210;2023-03-31T13:08:48;5.90;;;1.45;;
19605;SDS011;9950;50.168;8.210;2023-03-31T13:11:15;5.43;;;1.15;;
19605;SDS011;9950;50.168;8.210;2023-03-31T13:13:44;5.15;;;1.27;;
19605;SDS011;9950;50.168;8.210;2023-03-31T13:16:12;5.55;;;1.00;;
19605;SDS011;9950;50.168;8.210;2023-03-31T13:18:49;3.25;;;1.52;;
19605;SDS011;9950;50.168;8.210;2023-03-31T13:21:16;6.55;;;1.60;;
19605;SDS011;9950;50.168;8.210;2023-03-31T13:23:45;6.15;;;1.33;;
19605;SDS011;9950;50.168;8.210;2023-03-31T13:29:08;7.45;;;1.60;;
19605;SDS011;9950;50.168;8.210;2023-03-31T13:34:20;5.55;;;1.48;;
19605;SDS011;9950;50.168;8.210;2023-03-31T13:36:50;5.93;;;1.85;;
19605;SDS011;9950;50.168;8.210;2023-03-31T13:42:23;6.15;;;1.33;;
19605;SDS011;9950;50.168;8.210;2023-03-31T13:45:12;4.35;;;0.98;;
19605;SDS011;9950;50.168;8.210;2023-03-31T13:47:52;4.88;;;1.35;;
19605;SDS011;9950;50.168;8.210;2023-03-31T13:50:35;6.13;;;1.25;;
19605;SDS011;9950;50.168;8.210;2023-03-31T13:53:06;7.35;;;1.60;;
19605;SDS011;9950;50.168;8.210;2023-03-31T13:55:39;3.50;;;1.27;;
19605;SDS011;9950;50.168;8.210;2023-03-31T13:58:17;3.95;;;1.13;;
19605;SDS011;9950;50.168;8.210;2023-03-31T14:00:48;5.47;;;1.35;;
19605;SDS011;9950;50.168;8.210;2023-03-31T14:06:05;5.18;;;1.30;;
19605;SDS011;9950;50.168;8.210;2023-03-31T14:08:43;3.08;;;1.20;;
19605;SDS011;9950;50.168;8.210;2023-03-31T14:11:17;6.03;;;1.35;;
19605;SDS011;9950;50.168;8.210;2023-03-31T14:13:57;6.50;;;1.20;;
19605;SDS011;9950;50.168;8.210;2023-03-31T14:16:25;5.30;;;1.23;;
19605;SDS011;9950;50.168;8.210;2023-03-31T14:18:54;3.78;;;1.00;;
19605;SDS011;9950;50.168;8.210;2023-03-31T14:21:27;6.20;;;1.00;;
19605;SDS011;9950;50.168;8.210;2023-03-31T14:23:59;3.40;;;1.10;;
19605;SDS011;9950;50.168;8.210;2023-03-31T14:26:34;6.25;;;1.25;;
19605;SDS011;9950;50.168;8.210;2023-03-31T14:29:06;4.90;;;1.42;;
19605;SDS011;9950;50.168;8.210;2023-03-31T14:31:39;3.75;;;1.00;;
19605;SDS011;9950;50.168;8.210;2023-03-31T14:34:21;5.55;;;1.63;;
19605;SDS011;9950;50.168;8.210;2023-03-31T14:36:54;4.68;;;0.95;;
19605;SDS011;9950;50.168;8.210;2023-03-31T14:39:24;7.95;;;1.55;;
19605;SDS011;9950;50.168;8.210;2023-03-31T14:41:53;3.22;;;1.65;;
19605;SDS011;9950;50.168;8.210;2023-03-31T14:44:21;3.33;;;1.02;;
19605;SDS011;9950;50.168;8.210;2023-03-31T14:46:48;4.15;;;1.58;;
19605;SDS011;9950;50.168;8.210;2023-03-31T14:49:18;6.22;;;1.40;;
19605;SDS011;9950;50.168;8.210;2023-03-31T14:51:46;8.55;;;1.10;;
19605;SDS011;9950;50.168;8.210;2023-03-31T14:54:15;5.78;;;1.30;;
19605;SDS011;9950;50.168;8.210;2023-03-31T14:56:44;4.03;;;0.90;;
19605;SDS011;9950;50.168;8.210;2023-03-31T14:59:12;2.95;;;0.80;;
19605;SDS011;9950;50.168;8.210;2023-03-31T15:01:41;4.07;;;1.00;;
19605;SDS011;9950;50.168;8.210;2023-03-31T15:04:09;3.75;;;1.10;;
19605;SDS011;9950;50.168;8.210;2023-03-31T15:06:36;5.63;;;1.02;;
19605;SDS011;9950;50.168;8.210;2023-03-31T15:09:05;4.63;;;1.23;;
19605;SDS011;9950;50.168;8.210;2023-03-31T15:11:36;5.13;;;1.20;;
19605;SDS011;9950;50.168;8.210;2023-03-31T15:14:03;5.07;;;1.15;;
19605;SDS011;9950;50.168;8.210;2023-03-31T15:16:32;2.85;;;0.80;;
19605;SDS011;9950;50.168;8.210;2023-03-31T15:19:03;1.77;;;0.63;;
19605;SDS011;9950;50.168;8.210;2023-03-31T15:21:31;2.97;;;0.80;;
19605;SDS011;9950;50.168;8.210;2023-03-31T15:24:00;2.35;;;0.70;;
19605;SDS011;9950;50.168;8.210;2023-03-31T15:26:31;3.65;;;1.10;;
19605;SDS011;9950;50.168;8.210;2023-03-31T15:29:02;7.53;;;2.33;;
19605;SDS011;9950;50.168;8.210;2023-03-31T15:31:31;4.13;;;1.00;;
19605;SDS011;9950;50.168;8.210;2023-03-31T15:33:58;3.00;;;0.80;;
19605;SDS011;9950;50.168;8.210;2023-03-31T15:36:26;3.08;;;1.00;;
19605;SDS011;9950;50.168;8.210;2023-03-31T15:38:54;4.10;;;1.00;;
19605;SDS011;9950;50.168;8.210;2023-03-31T15:41:23;5.90;;;1.00;;